createdAt,value
2023-02-14T00:00:55.631Z,43.63
2023-02-14T00:03:21.337Z,43.56
2023-02-14T00:05:47.000Z,43.48
2023-02-14T00:08:12.654Z,43.64
2023-02-14T00:10:38.375Z,43.69
2023-02-14T00:13:04.212Z,43.57
2023-02-14T00:15:29.858Z,43.54
2023-02-14T00:17:58.658Z,43.69
2023-02-14T00:20:25.624Z,43.67
2023-02-14T00:22:51.772Z,43.59
2023-02-14T00:25:17.618Z,43.66
2023-02-14T00:27:43.357Z,43.36
2023-02-14T00:30:10.672Z,43.66
2023-02-14T00:32:38.730Z,43.66
2023-02-14T00:35:05.524Z,43.51
2023-02-14T00:37:31.648Z,43.51
2023-02-14T00:39:57.287Z,43.61
2023-02-14T00:42:22.927Z,43.52
2023-02-14T00:44:48.564Z,43.64
2023-02-14T00:47:14.284Z,43.76
2023-02-14T00:49:39.941Z,43.54
2023-02-14T00:52:05.639Z,43.54
2023-02-14T00:54:31.355Z,43.46
2023-02-14T00:56:56.991Z,43.44
2023-02-14T00:59:22.741Z,43.49
2023-02-14T01:01:48.461Z,43.64
2023-02-14T01:04:14.116Z,43.44
2023-02-14T01:06:39.770Z,43.46
2023-02-14T01:09:05.455Z,43.68
2023-02-14T01:11:31.098Z,43.53
2023-02-14T01:13:57.321Z,43.59
2023-02-14T01:16:25.026Z,43.50
2023-02-14T01:18:50.856Z,43.36
2023-02-14T01:21:22.684Z,43.61
2023-02-14T01:23:50.056Z,43.61
2023-02-14T01:26:16.442Z,43.63
2023-02-14T01:28:42.370Z,43.63
2023-02-14T01:31:10.689Z,43.49
2023-02-14T01:33:37.099Z,43.48
2023-02-14T01:36:03.064Z,43.51
2023-02-14T01:38:28.912Z,43.58
2023-02-14T01:40:54.620Z,43.55
2023-02-14T01:43:20.254Z,43.56
2023-02-14T01:45:45.963Z,43.53
2023-02-14T01:48:11.848Z,43.46
2023-02-14T01:50:40.704Z,43.42
2023-02-14T01:53:11.623Z,43.59
2023-02-14T01:55:41.888Z,43.66
2023-02-14T01:58:10.968Z,43.58
2023-02-14T02:00:58.186Z,43.37
2023-02-14T02:03:32.176Z,43.62
2023-02-14T02:06:06.306Z,43.39
2023-02-14T02:08:35.276Z,43.58
2023-02-14T02:11:01.247Z,43.50
2023-02-14T02:13:27.104Z,43.44
2023-02-14T02:19:10.345Z,43.44
2023-02-14T02:22:09.542Z,43.61
2023-02-14T02:25:03.870Z,43.59
2023-02-14T02:27:58.252Z,43.46
2023-02-14T02:33:39.233Z,43.41
2023-02-14T02:39:23.886Z,43.52
2023-02-14T02:42:20.782Z,43.46
2023-02-14T02:45:19.465Z,43.32
2023-02-14T02:48:08.697Z,43.52
2023-02-14T02:51:01.312Z,43.37
2023-02-14T02:53:40.632Z,43.45
2023-02-14T02:56:33.689Z,43.42
2023-02-14T02:59:05.764Z,43.47
2023-02-14T03:01:35.384Z,43.57
2023-02-14T03:04:24.400Z,43.54
2023-02-14T03:06:50.876Z,43.56
2023-02-14T03:14:49.641Z,43.52
2023-02-14T03:17:24.705Z,43.57
2023-02-14T03:20:14.977Z,43.33
2023-02-14T03:23:03.533Z,43.25
2023-02-14T03:25:42.902Z,43.42
2023-02-14T03:28:31.890Z,43.53
2023-02-14T03:31:06.722Z,43.42
2023-02-14T03:33:38.394Z,43.31
2023-02-14T03:36:26.367Z,43.57
2023-02-14T03:39:13.401Z,43.52
2023-02-14T03:41:45.745Z,43.46
2023-02-14T03:44:12.382Z,43.27
2023-02-14T03:46:43.980Z,43.48
2023-02-14T03:49:12.667Z,43.61
2023-02-14T03:51:38.690Z,43.45
2023-02-14T03:54:06.999Z,43.51
2023-02-14T03:56:39.284Z,43.43
2023-02-14T03:59:09.465Z,43.49
2023-02-14T04:01:38.218Z,43.39
2023-02-14T04:04:05.013Z,43.50
2023-02-14T04:06:30.662Z,43.54
2023-02-14T04:08:56.294Z,43.48
2023-02-14T04:11:24.074Z,43.54
2023-02-14T04:13:50.186Z,43.44
2023-02-14T04:16:15.843Z,43.55
2023-02-14T04:19:01.425Z,43.35
2023-02-14T04:21:27.101Z,43.34
2023-02-14T04:23:52.737Z,43.41
2023-02-14T04:26:18.386Z,43.40
2023-02-14T04:28:44.109Z,43.18
2023-02-14T04:31:10.688Z,43.06
2023-02-14T04:33:36.777Z,43.44
2023-02-14T04:36:02.509Z,43.39
2023-02-14T04:38:28.163Z,43.37
2023-02-14T04:40:53.847Z,43.25
2023-02-14T04:43:19.498Z,43.27
2023-02-14T04:45:46.062Z,43.39
2023-02-14T04:48:11.724Z,43.32
2023-02-14T04:50:37.360Z,43.48
2023-02-14T04:53:03.031Z,43.49
2023-02-14T04:55:28.689Z,43.31
2023-02-14T04:57:54.348Z,43.36
2023-02-14T05:00:20.231Z,43.28
2023-02-14T05:02:45.905Z,43.37
2023-02-14T05:05:11.552Z,43.52
2023-02-14T05:07:37.221Z,43.31
2023-02-14T05:10:04.860Z,43.24
2023-02-14T05:12:30.493Z,43.28
2023-02-14T05:14:56.794Z,43.44
2023-02-14T05:17:22.800Z,43.32
2023-02-14T05:19:48.467Z,43.33
2023-02-14T05:22:14.179Z,43.31
2023-02-14T05:24:39.821Z,43.29
2023-02-14T05:27:06.692Z,43.11
2023-02-14T05:29:32.354Z,43.41
2023-02-14T05:31:58.040Z,43.40
2023-02-14T05:34:23.880Z,43.43
2023-02-14T05:36:49.512Z,43.20
2023-02-14T05:39:15.169Z,43.34
2023-02-14T05:41:40.955Z,43.41
2023-02-14T05:44:06.612Z,43.23
2023-02-14T05:46:32.245Z,43.23
2023-02-14T05:48:58.241Z,43.29
2023-02-14T05:51:23.898Z,43.42
2023-02-14T05:53:49.539Z,43.50
2023-02-14T05:56:15.446Z,43.42
2023-02-14T05:58:41.082Z,43.22
2023-02-14T06:01:06.734Z,43.34
2023-02-14T06:03:32.376Z,43.48
2023-02-14T06:05:58.018Z,43.38
2023-02-14T06:08:23.654Z,43.33
2023-02-14T06:10:49.343Z,43.33
2023-02-14T06:13:15.117Z,43.39
2023-02-14T06:15:40.760Z,43.46
2023-02-14T06:18:06.445Z,43.24
2023-02-14T06:20:32.101Z,43.41
2023-02-14T06:22:57.783Z,43.36
2023-02-14T06:25:24.589Z,43.34
2023-02-14T06:27:50.877Z,43.16
2023-02-14T06:30:17.490Z,43.21
2023-02-14T06:32:43.304Z,43.43
2023-02-14T06:35:09.294Z,43.38
2023-02-14T06:37:34.962Z,43.23
2023-02-14T06:40:01.085Z,43.40
2023-02-14T06:42:26.731Z,43.32
2023-02-14T06:44:52.391Z,43.28
2023-02-14T06:47:18.044Z,43.44
2023-02-14T06:49:43.701Z,43.48
2023-02-14T06:52:09.445Z,43.64
2023-02-14T06:54:35.111Z,43.50
2023-02-14T06:57:00.755Z,43.54
2023-02-14T06:59:26.534Z,43.37
2023-02-14T07:01:52.804Z,43.43
2023-02-14T07:04:18.494Z,43.39
2023-02-14T07:06:45.317Z,43.57
2023-02-14T07:09:11.230Z,43.67
2023-02-14T07:11:36.872Z,43.59
2023-02-14T07:14:02.553Z,43.57
2023-02-14T07:16:28.301Z,43.42
2023-02-14T07:18:53.940Z,43.53
2023-02-14T07:21:19.634Z,43.48
2023-02-14T07:23:46.941Z,43.43
2023-02-14T07:26:17.168Z,43.57
2023-02-14T07:28:45.233Z,43.64
2023-02-14T07:31:11.460Z,43.37
2023-02-14T07:33:37.653Z,43.42
2023-02-14T07:36:04.857Z,43.39
2023-02-14T07:38:30.523Z,43.49
2023-02-14T07:40:56.179Z,43.45
2023-02-14T07:43:21.810Z,43.58
2023-02-14T07:45:48.020Z,43.52
2023-02-14T07:48:13.656Z,43.26
2023-02-14T07:50:39.302Z,43.25
2023-02-14T07:53:04.948Z,43.33
2023-02-14T07:55:30.634Z,43.53
2023-02-14T07:57:56.284Z,43.24
2023-02-14T08:00:22.169Z,43.25
2023-02-14T08:02:48.600Z,43.37
2023-02-14T08:05:14.765Z,43.38
2023-02-14T08:07:41.260Z,43.34
2023-02-14T08:10:07.083Z,43.21
2023-02-14T08:12:52.629Z,42.82
2023-02-14T08:15:38.185Z,43.10
2023-02-14T08:18:03.825Z,43.35
2023-02-14T08:20:29.471Z,42.68
2023-02-14T08:22:55.399Z,42.98
2023-02-14T08:25:21.068Z,43.00
2023-02-14T08:27:46.718Z,43.29
2023-02-14T08:30:12.808Z,43.59
2023-02-14T08:32:38.617Z,43.60
2023-02-14T08:35:04.583Z,43.54
2023-02-14T08:37:30.229Z,43.77
2023-02-14T08:39:55.909Z,43.87
2023-02-14T08:42:21.562Z,43.56
2023-02-14T08:44:47.202Z,43.80
2023-02-14T08:47:12.860Z,43.61
2023-02-14T08:49:38.706Z,43.48
2023-02-14T08:52:04.481Z,43.43
2023-02-14T08:54:30.150Z,44.01
2023-02-14T08:56:56.117Z,43.81
2023-02-14T08:59:21.842Z,43.96
2023-02-14T09:01:47.503Z,44.05
2023-02-14T09:04:13.320Z,44.00
2023-02-14T09:06:39.223Z,44.25
2023-02-14T09:09:05.903Z,44.00
2023-02-14T09:11:32.083Z,44.20
2023-02-14T09:13:57.757Z,44.03
2023-02-14T09:16:24.374Z,43.95
2023-02-14T09:18:51.866Z,44.08
2023-02-14T09:21:23.390Z,44.32
2023-02-14T09:23:49.189Z,43.94
2023-02-14T09:26:16.102Z,43.96
2023-02-14T09:28:41.842Z,44.02
2023-02-14T09:31:09.851Z,44.04
2023-02-14T09:33:35.706Z,44.14
2023-02-14T09:36:21.371Z,44.25
2023-02-14T09:38:47.046Z,44.05
2023-02-14T09:41:33.093Z,44.05
2023-02-14T09:44:10.273Z,44.24
2023-02-14T09:46:42.352Z,44.27
2023-02-14T09:49:13.737Z,44.05
2023-02-14T09:51:44.376Z,44.20
2023-02-14T09:54:12.957Z,44.04
2023-02-14T09:57:02.272Z,44.05
2023-02-14T09:59:37.003Z,43.68
2023-02-14T10:02:21.900Z,43.98
2023-02-14T10:05:02.190Z,44.15
2023-02-14T10:07:37.201Z,44.05
2023-02-14T10:10:15.678Z,44.38
2023-02-14T10:12:46.930Z,44.38
2023-02-14T10:15:20.490Z,44.09
2023-02-14T10:17:51.889Z,44.19
2023-02-14T10:20:38.601Z,44.27
2023-02-14T10:23:37.648Z,44.15
2023-02-14T10:26:06.788Z,44.05
2023-02-14T10:28:35.064Z,43.99
2023-02-14T10:31:31.797Z,43.88
2023-02-14T10:34:14.406Z,44.20
2023-02-14T10:40:17.683Z,44.11
2023-02-14T10:43:23.168Z,44.19
2023-02-14T10:45:58.762Z,44.05
2023-02-14T10:48:51.310Z,44.10
2023-02-14T10:51:31.231Z,44.08
2023-02-14T10:54:16.028Z,43.83
2023-02-14T10:56:46.423Z,44.13
2023-02-14T10:59:32.096Z,44.07
2023-02-14T11:01:58.607Z,44.04
2023-02-14T11:04:24.671Z,44.15
2023-02-14T11:06:50.961Z,44.02
2023-02-14T11:09:17.155Z,44.23
2023-02-14T11:11:46.212Z,44.16
2023-02-14T11:14:27.365Z,44.09
2023-02-14T11:16:53.912Z,44.09
2023-02-14T11:19:30.049Z,44.06
2023-02-14T11:21:57.594Z,43.87
2023-02-14T11:24:27.476Z,43.92
2023-02-14T11:26:56.009Z,44.00
2023-02-14T11:29:41.468Z,44.08
2023-02-14T11:32:09.941Z,43.97
2023-02-14T11:34:36.421Z,43.83
2023-02-14T11:37:03.531Z,43.89
2023-02-14T11:39:31.791Z,43.81
2023-02-14T11:42:00.719Z,44.06
2023-02-14T11:44:28.130Z,43.72
2023-02-14T11:46:55.510Z,43.81
2023-02-14T11:49:26.740Z,43.90
2023-02-14T11:51:52.410Z,43.68
2023-02-14T11:54:28.208Z,43.94
2023-02-14T11:57:00.141Z,43.67
2023-02-14T11:59:30.431Z,43.66
2023-02-14T12:01:57.826Z,43.58
2023-02-14T12:04:35.266Z,42.20
2023-02-14T12:07:33.172Z,43.19
2023-02-14T12:13:19.848Z,43.62
2023-02-14T12:18:36.960Z,43.41
2023-02-14T12:21:39.457Z,43.69
2023-02-14T12:24:22.224Z,43.46
2023-02-14T12:26:55.135Z,43.36
2023-02-14T12:29:39.358Z,43.53
2023-02-14T12:32:22.851Z,41.86
2023-02-14T12:34:48.997Z,41.73
2023-02-14T12:37:36.984Z,42.52
2023-02-14T12:40:11.463Z,42.45
2023-02-14T12:43:11.751Z,42.81
2023-02-14T12:46:03.006Z,42.86
2023-02-14T12:48:46.350Z,42.68
2023-02-14T12:51:34.798Z,42.74
2023-02-14T12:54:30.259Z,43.04
2023-02-14T12:57:21.139Z,42.88
2023-02-14T13:00:05.482Z,42.91
2023-02-14T13:03:01.807Z,42.81
2023-02-14T13:06:07.790Z,43.06
2023-02-14T13:09:02.852Z,42.99
2023-02-14T13:11:52.203Z,42.86
2023-02-14T13:14:31.433Z,42.88
2023-02-14T13:17:04.713Z,42.80
2023-02-14T13:19:41.254Z,42.93
2023-02-14T13:22:11.867Z,42.92
2023-02-14T13:24:40.865Z,37.43
2023-02-14T13:27:08.404Z,41.41
2023-02-14T13:29:42.693Z,41.91
2023-02-14T13:32:11.191Z,42.21
2023-02-14T13:34:41.047Z,42.02
2023-02-14T13:37:10.059Z,42.29
2023-02-14T13:39:38.849Z,42.36
2023-02-14T13:42:05.357Z,42.16
2023-02-14T13:47:18.268Z,42.29
2023-02-14T13:49:48.233Z,42.36
2023-02-14T13:52:48.787Z,42.49
2023-02-14T13:55:20.914Z,42.66
2023-02-14T13:58:00.502Z,42.35
2023-02-14T14:00:43.791Z,42.78
2023-02-14T14:03:13.844Z,42.53
2023-02-14T14:08:26.426Z,42.82
2023-02-14T14:10:56.080Z,37.61
2023-02-14T14:13:46.019Z,41.51
2023-02-14T14:16:26.940Z,41.93
2023-02-14T14:19:18.454Z,41.92
2023-02-14T14:22:00.043Z,41.88
2023-02-14T14:24:29.478Z,41.99
2023-02-14T14:27:04.337Z,41.95
2023-02-14T14:29:37.124Z,42.35
2023-02-14T14:32:08.302Z,42.29
2023-02-14T14:34:33.973Z,40.93
2023-02-14T14:37:03.296Z,41.77
2023-02-14T14:39:31.542Z,42.15
2023-02-14T14:42:07.136Z,41.94
2023-02-14T14:44:33.901Z,41.96
2023-02-14T14:46:59.676Z,41.97
2023-02-14T14:49:25.542Z,41.82
2023-02-14T14:51:51.221Z,41.98
2023-02-14T14:54:19.574Z,42.14
2023-02-14T14:56:49.089Z,42.15
2023-02-14T14:59:17.332Z,37.93
2023-02-14T15:01:43.931Z,37.75
2023-02-14T15:04:19.899Z,38.05
2023-02-14T15:06:46.915Z,38.00
2023-02-14T15:09:16.097Z,38.30
2023-02-14T15:12:02.589Z,38.44
2023-02-14T15:14:30.223Z,38.16
2023-02-14T15:17:00.260Z,38.40
2023-02-14T15:19:33.844Z,38.39
2023-02-14T15:22:01.942Z,39.41
2023-02-14T15:24:29.617Z,39.64
2023-02-14T15:26:55.654Z,39.75
2023-02-14T15:29:25.617Z,39.95
2023-02-14T15:31:52.043Z,39.96
2023-02-14T15:34:21.446Z,40.21
2023-02-14T15:36:51.298Z,40.07
2023-02-14T15:39:18.032Z,40.33
2023-02-14T15:41:44.037Z,40.40
2023-02-14T15:44:21.952Z,40.56
2023-02-14T15:46:47.911Z,40.53
2023-02-14T15:49:18.079Z,40.37
2023-02-14T15:51:43.909Z,40.46
2023-02-14T15:54:32.532Z,40.60
2023-02-14T15:56:58.937Z,40.70
2023-02-14T15:59:28.926Z,40.60
2023-02-14T16:01:58.245Z,40.73
2023-02-14T16:04:25.811Z,40.97
2023-02-14T16:07:27.201Z,40.75
2023-02-14T16:10:28.589Z,40.86
2023-02-14T16:13:00.091Z,40.85
2023-02-14T16:15:28.153Z,40.84
2023-02-14T16:17:53.894Z,41.03
2023-02-14T16:20:29.935Z,41.12
2023-02-14T16:23:18.114Z,40.83
2023-02-14T16:25:43.915Z,41.08
2023-02-14T16:28:09.541Z,41.11
2023-02-14T16:30:36.530Z,41.03
2023-02-14T16:33:02.186Z,41.35
2023-02-14T16:35:28.668Z,41.21
2023-02-14T16:37:54.484Z,41.53
2023-02-14T16:40:24.753Z,41.37
2023-02-14T16:42:50.388Z,41.35
2023-02-14T16:45:17.668Z,41.67
2023-02-14T16:47:45.873Z,41.57
2023-02-14T16:50:11.596Z,41.61
2023-02-14T16:52:37.732Z,41.63
2023-02-14T16:55:04.039Z,41.92
2023-02-14T16:57:33.499Z,41.83
2023-02-14T16:59:59.663Z,41.96
2023-02-14T17:02:27.377Z,41.68
2023-02-14T17:04:53.864Z,41.96
2023-02-14T17:07:20.186Z,41.70
2023-02-14T17:10:00.581Z,41.78
2023-02-14T17:12:30.626Z,41.72
2023-02-14T17:14:58.081Z,42.07
2023-02-14T17:17:24.279Z,42.07
2023-02-14T17:19:52.663Z,42.11
2023-02-14T17:22:18.551Z,42.07
2023-02-14T17:24:44.195Z,41.95
2023-02-14T17:27:09.849Z,42.16
2023-02-14T17:29:35.520Z,42.06
2023-02-14T17:32:01.435Z,42.25
2023-02-14T17:34:31.532Z,41.91
2023-02-14T17:36:57.183Z,42.01
2023-02-14T17:39:22.819Z,42.07
2023-02-14T17:41:48.501Z,42.19
2023-02-14T17:44:14.920Z,41.91
2023-02-14T17:46:40.599Z,42.05
2023-02-14T17:49:07.509Z,42.22
2023-02-14T17:51:33.172Z,42.35
2023-02-14T17:53:59.106Z,42.32
2023-02-14T17:56:25.204Z,42.05
2023-02-14T17:58:52.326Z,42.24
2023-02-14T18:01:20.286Z,42.06
2023-02-14T18:03:46.009Z,42.33
2023-02-14T18:06:13.073Z,42.21
2023-02-14T18:08:41.172Z,42.36
2023-02-14T18:11:09.526Z,42.36
2023-02-14T18:13:35.184Z,42.30
2023-02-14T18:16:02.476Z,42.17
2023-02-14T18:18:28.170Z,42.24
2023-02-14T18:20:55.235Z,42.15
2023-02-14T18:23:21.195Z,42.41
2023-02-14T18:25:54.319Z,42.15
2023-02-14T18:28:21.896Z,42.41
2023-02-14T18:30:47.587Z,42.29
2023-02-14T18:33:14.108Z,42.17
2023-02-14T18:35:39.756Z,42.45
2023-02-14T18:38:06.250Z,42.19
2023-02-14T18:40:31.914Z,42.17
2023-02-14T18:42:57.569Z,42.49
2023-02-14T18:45:23.722Z,42.19
2023-02-14T18:47:49.731Z,42.42
2023-02-14T18:50:15.532Z,42.31
2023-02-14T18:52:41.305Z,42.23
2023-02-14T18:55:07.060Z,42.24
2023-02-14T18:57:33.535Z,42.23
2023-02-14T18:59:59.671Z,42.44
2023-02-14T19:02:25.792Z,42.49
2023-02-14T19:04:51.683Z,42.34
2023-02-14T19:07:17.429Z,42.32
2023-02-14T19:09:43.242Z,42.32
2023-02-14T19:12:09.788Z,42.63
2023-02-14T19:14:35.825Z,42.38
2023-02-14T19:17:02.823Z,42.52
2023-02-14T19:19:28.473Z,42.30
2023-02-14T19:21:57.495Z,42.48
2023-02-14T19:24:24.807Z,42.36
2023-02-14T19:26:51.212Z,42.52
2023-02-14T19:29:19.334Z,42.46
2023-02-14T19:31:48.254Z,42.47
2023-02-14T19:34:16.466Z,42.23
2023-02-14T19:36:42.103Z,42.54
2023-02-14T19:39:07.755Z,42.61
2023-02-14T19:41:33.793Z,42.41
2023-02-14T19:44:02.055Z,42.55
2023-02-14T19:46:28.155Z,42.58
2023-02-14T19:48:55.456Z,42.47
2023-02-14T19:51:30.477Z,42.46
2023-02-14T19:53:58.264Z,42.31
2023-02-14T19:56:26.239Z,42.30
2023-02-14T19:58:52.292Z,42.28
2023-02-14T20:01:28.681Z,42.58
2023-02-14T20:03:54.358Z,42.34
2023-02-14T20:06:21.178Z,42.39
2023-02-14T20:08:47.729Z,42.49
2023-02-14T20:11:35.459Z,42.33
2023-02-14T20:14:02.505Z,42.56
2023-02-14T20:16:30.139Z,42.50
2023-02-14T20:18:56.121Z,42.34
2023-02-14T20:21:27.112Z,42.55
2023-02-14T20:24:01.659Z,42.29
2023-02-14T20:26:28.515Z,42.40
2023-02-14T20:28:54.594Z,42.60
2023-02-14T20:31:20.777Z,42.26
2023-02-14T20:33:47.182Z,42.38
2023-02-14T20:36:13.282Z,42.39
2023-02-14T20:38:38.940Z,42.61
2023-02-14T20:41:06.040Z,42.39
2023-02-14T20:43:31.780Z,42.31
2023-02-14T20:45:59.446Z,42.61
2023-02-14T20:48:25.250Z,42.33
2023-02-14T20:50:50.912Z,42.31
2023-02-14T20:53:16.552Z,42.52
2023-02-14T20:55:43.836Z,42.53
2023-02-14T20:58:10.130Z,42.60
2023-02-14T21:00:35.860Z,42.49
2023-02-14T21:03:01.523Z,42.40
2023-02-14T21:05:27.950Z,42.50
2023-02-14T21:07:53.663Z,42.52
2023-02-14T21:10:19.363Z,42.34
2023-02-14T21:12:45.001Z,42.38
2023-02-14T21:15:10.938Z,42.53
2023-02-14T21:17:37.063Z,42.40
2023-02-14T21:20:04.136Z,42.66
2023-02-14T21:22:29.790Z,42.51
2023-02-14T21:24:55.460Z,42.42
2023-02-14T21:27:21.114Z,42.50
2023-02-14T21:29:46.768Z,42.58
2023-02-14T21:32:12.578Z,42.65
2023-02-14T21:34:38.575Z,42.46
2023-02-14T21:37:04.253Z,42.36
2023-02-14T21:39:30.244Z,42.60
2023-02-14T21:41:56.429Z,42.69
2023-02-14T21:44:42.263Z,42.58
2023-02-14T21:47:07.921Z,42.61
2023-02-14T21:49:53.456Z,42.62
2023-02-14T21:52:19.161Z,42.70
2023-02-14T21:54:44.804Z,42.56
2023-02-14T21:57:10.447Z,42.73
2023-02-14T21:59:36.100Z,42.59
2023-02-14T22:02:01.731Z,42.35
2023-02-14T22:04:27.385Z,42.60
2023-02-14T22:06:53.011Z,42.29
2023-02-14T22:09:18.657Z,42.71
2023-02-14T22:11:46.730Z,42.46
2023-02-14T22:14:14.660Z,42.56
2023-02-14T22:16:40.435Z,42.52
2023-02-14T22:19:06.650Z,42.47
2023-02-14T22:21:32.834Z,42.53
2023-02-14T22:23:59.361Z,42.60
2023-02-14T22:26:28.951Z,42.37
2023-02-14T22:28:56.462Z,42.54
2023-02-14T22:31:23.768Z,42.56
2023-02-14T22:33:49.829Z,42.40
2023-02-14T22:36:15.521Z,42.48
2023-02-14T22:38:41.262Z,42.44
2023-02-14T22:41:08.956Z,42.32
2023-02-14T22:43:35.378Z,42.48
2023-02-14T22:46:03.459Z,42.72
2023-02-14T22:48:30.875Z,42.75
2023-02-14T22:50:56.521Z,42.28
2023-02-14T22:53:22.166Z,42.28
2023-02-14T22:55:47.828Z,42.31
2023-02-14T22:58:13.697Z,42.56
2023-02-14T23:03:30.138Z,42.67
2023-02-14T23:05:56.626Z,42.73
2023-02-14T23:08:22.513Z,42.77
2023-02-14T23:10:48.158Z,42.42
2023-02-14T23:13:33.681Z,42.50
2023-02-14T23:16:19.290Z,42.42
2023-02-14T23:19:04.950Z,42.43
2023-02-14T23:21:50.494Z,42.45
2023-02-14T23:24:16.146Z,42.45
2023-02-14T23:26:41.798Z,42.60
2023-02-14T23:29:07.460Z,42.43
2023-02-14T23:31:33.267Z,42.54
2023-02-14T23:33:58.937Z,42.43
2023-02-14T23:36:24.618Z,42.54
2023-02-14T23:38:50.325Z,42.41
2023-02-14T23:41:35.910Z,42.63
2023-02-14T23:44:01.558Z,42.61
2023-02-14T23:46:27.224Z,42.52
2023-02-14T23:48:52.861Z,42.47
2023-02-14T23:51:18.903Z,42.40
2023-02-14T23:53:44.537Z,42.30
2023-02-14T23:56:10.199Z,42.64
2023-02-14T23:58:35.847Z,42.41
